sensor_id;sensor_type;location;lat;lon;timestamp;P1;durP1;ratioP1;P2;durP2;ratioP2
56242;SDS011;42155;53.096;23.226;2023-07-13T00:00:29;24.13;;;17.52;;
56242;SDS011;42155;53.096;23.226;2023-07-13T00:02:30;25.70;;;18.33;;
56242;SDS011;42155;53.096;23.226;2023-07-13T00:04:30;22.58;;;17.20;;
56242;SDS011;42155;53.096;23.226;2023-07-13T00:06:31;27.70;;;17.40;;
56242;SDS011;42155;53.096;23.226;2023-07-13T00:08:31;22.48;;;17.08;;
56242;SDS011;42155;53.096;23.226;2023-07-13T00:10:31;26.38;;;17.55;;
56242;SDS011;42155;53.096;23.226;2023-07-13T00:12:32;21.48;;;17.13;;
56242;SDS011;42155;53.096;23.226;2023-07-13T00:14:35;24.63;;;18.00;;
56242;SDS011;42155;53.096;23.226;2023-07-13T00:16:35;26.30;;;18.55;;
56242;SDS011;42155;53.096;23.226;2023-07-13T00:18:37;26.60;;;18.33;;
56242;SDS011;42155;53.096;23.226;2023-07-13T00:20:37;24.35;;;18.10;;
56242;SDS011;42155;53.096;23.226;2023-07-13T00:22:38;25.38;;;17.67;;
56242;SDS011;42155;53.096;23.226;2023-07-13T00:24:38;20.10;;;15.65;;
56242;SDS011;42155;53.096;23.226;2023-07-13T00:26:39;24.15;;;17.65;;
56242;SDS011;42155;53.096;23.226;2023-07-13T00:28:40;24.27;;;17.48;;
56242;SDS011;42155;53.096;23.226;2023-07-13T00:30:40;21.83;;;16.63;;
56242;SDS011;42155;53.096;23.226;2023-07-13T00:32:40;22.05;;;16.95;;
56242;SDS011;42155;53.096;23.226;2023-07-13T00:34:41;25.42;;;17.48;;
56242;SDS011;42155;53.096;23.226;2023-07-13T00:36:41;21.45;;;16.58;;
56242;SDS011;42155;53.096;23.226;2023-07-13T00:38:41;23.98;;;17.88;;
56242;SDS011;42155;53.096;23.226;2023-07-13T00:40:42;23.30;;;16.88;;
56242;SDS011;42155;53.096;23.226;2023-07-13T00:42:42;25.25;;;18.70;;
56242;SDS011;42155;53.096;23.226;2023-07-13T00:45:00;22.75;;;17.38;;
56242;SDS011;42155;53.096;23.226;2023-07-13T00:47:20;25.65;;;17.63;;
56242;SDS011;42155;53.096;23.226;2023-07-13T00:49:21;25.75;;;18.08;;
56242;SDS011;42155;53.096;23.226;2023-07-13T00:51:34;24.00;;;17.65;;
56242;SDS011;42155;53.096;23.226;2023-07-13T00:53:40;24.10;;;17.83;;
56242;SDS011;42155;53.096;23.226;2023-07-13T00:55:41;24.13;;;17.83;;
56242;SDS011;42155;53.096;23.226;2023-07-13T00:57:42;22.35;;;16.95;;
56242;SDS011;42155;53.096;23.226;2023-07-13T00:59:45;25.25;;;16.08;;
56242;SDS011;42155;53.096;23.226;2023-07-13T01:02:00;21.52;;;15.95;;
56242;SDS011;42155;53.096;23.226;2023-07-13T01:04:01;23.20;;;17.10;;
56242;SDS011;42155;53.096;23.226;2023-07-13T01:06:01;23.08;;;16.25;;
56242;SDS011;42155;53.096;23.226;2023-07-13T01:08:02;20.98;;;15.95;;
56242;SDS011;42155;53.096;23.226;2023-07-13T01:10:03;20.70;;;15.80;;
56242;SDS011;42155;53.096;23.226;2023-07-13T01:12:04;22.05;;;16.05;;
56242;SDS011;42155;53.096;23.226;2023-07-13T01:14:04;19.25;;;15.95;;
56242;SDS011;42155;53.096;23.226;2023-07-13T01:16:11;19.52;;;15.32;;
56242;SDS011;42155;53.096;23.226;2023-07-13T01:18:18;26.90;;;17.80;;
56242;SDS011;42155;53.096;23.226;2023-07-13T01:20:21;21.92;;;15.35;;
56242;SDS011;42155;53.096;23.226;2023-07-13T01:22:22;21.38;;;16.30;;
56242;SDS011;42155;53.096;23.226;2023-07-13T01:24:22;22.45;;;16.33;;
56242;SDS011;42155;53.096;23.226;2023-07-13T01:26:22;19.92;;;15.77;;
56242;SDS011;42155;53.096;23.226;2023-07-13T01:28:23;20.83;;;15.30;;
56242;SDS011;42155;53.096;23.226;2023-07-13T01:30:25;20.73;;;15.57;;
56242;SDS011;42155;53.096;23.226;2023-07-13T01:32:25;22.35;;;16.25;;
56242;SDS011;42155;53.096;23.226;2023-07-13T01:34:26;20.02;;;15.40;;
56242;SDS011;42155;53.096;23.226;2023-07-13T01:36:26;21.73;;;16.13;;
56242;SDS011;42155;53.096;23.226;2023-07-13T01:38:27;22.80;;;16.15;;
56242;SDS011;42155;53.096;23.226;2023-07-13T01:40:28;22.05;;;15.48;;
56242;SDS011;42155;53.096;23.226;2023-07-13T01:42:29;17.88;;;14.50;;
56242;SDS011;42155;53.096;23.226;2023-07-13T01:44:30;20.40;;;15.20;;
56242;SDS011;42155;53.096;23.226;2023-07-13T01:46:30;19.95;;;14.77;;
56242;SDS011;42155;53.096;23.226;2023-07-13T01:48:30;17.65;;;13.82;;
56242;SDS011;42155;53.096;23.226;2023-07-13T01:50:31;23.25;;;15.23;;
56242;SDS011;42155;53.096;23.226;2023-07-13T01:52:31;18.92;;;13.90;;
56242;SDS011;42155;53.096;23.226;2023-07-13T01:54:31;21.55;;;14.57;;
56242;SDS011;42155;53.096;23.226;2023-07-13T01:56:32;18.92;;;14.70;;
56242;SDS011;42155;53.096;23.226;2023-07-13T01:58:32;20.42;;;14.73;;
56242;SDS011;42155;53.096;23.226;2023-07-13T02:00:32;20.45;;;14.25;;
56242;SDS011;42155;53.096;23.226;2023-07-13T02:02:33;19.60;;;14.73;;
56242;SDS011;42155;53.096;23.226;2023-07-13T02:04:33;18.13;;;13.80;;
56242;SDS011;42155;53.096;23.226;2023-07-13T02:06:34;19.80;;;14.35;;
56242;SDS011;42155;53.096;23.226;2023-07-13T02:08:34;23.85;;;14.07;;
56242;SDS011;42155;53.096;23.226;2023-07-13T02:10:35;18.67;;;14.15;;
56242;SDS011;42155;53.096;23.226;2023-07-13T02:12:37;16.55;;;12.75;;
56242;SDS011;42155;53.096;23.226;2023-07-13T02:14:37;19.00;;;13.82;;
56242;SDS011;42155;53.096;23.226;2023-07-13T02:16:38;21.23;;;14.40;;
56242;SDS011;42155;53.096;23.226;2023-07-13T02:18:38;16.55;;;12.50;;
56242;SDS011;42155;53.096;23.226;2023-07-13T02:20:39;15.20;;;12.38;;
56242;SDS011;42155;53.096;23.226;2023-07-13T02:22:39;18.60;;;13.55;;
56242;SDS011;42155;53.096;23.226;2023-07-13T02:24:39;15.73;;;12.85;;
56242;SDS011;42155;53.096;23.226;2023-07-13T02:26:39;18.80;;;13.18;;
56242;SDS011;42155;53.096;23.226;2023-07-13T02:28:40;18.70;;;13.25;;
56242;SDS011;42155;53.096;23.226;2023-07-13T02:30:40;15.65;;;12.15;;
56242;SDS011;42155;53.096;23.226;2023-07-13T02:32:41;19.48;;;13.90;;
56242;SDS011;42155;53.096;23.226;2023-07-13T02:34:41;15.90;;;13.32;;
56242;SDS011;42155;53.096;23.226;2023-07-13T02:36:41;18.75;;;13.25;;
56242;SDS011;42155;53.096;23.226;2023-07-13T02:38:42;15.32;;;12.00;;
56242;SDS011;42155;53.096;23.226;2023-07-13T02:40:42;15.93;;;12.57;;
56242;SDS011;42155;53.096;23.226;2023-07-13T02:42:43;18.05;;;13.07;;
56242;SDS011;42155;53.096;23.226;2023-07-13T02:44:43;16.95;;;12.73;;
56242;SDS011;42155;53.096;23.226;2023-07-13T02:46:43;17.23;;;12.48;;
56242;SDS011;42155;53.096;23.226;2023-07-13T02:48:44;16.92;;;13.55;;
56242;SDS011;42155;53.096;23.226;2023-07-13T02:50:44;18.27;;;13.95;;
56242;SDS011;42155;53.096;23.226;2023-07-13T02:52:45;24.73;;;13.95;;
56242;SDS011;42155;53.096;23.226;2023-07-13T02:54:45;18.75;;;14.02;;
56242;SDS011;42155;53.096;23.226;2023-07-13T02:56:45;19.98;;;13.15;;
56242;SDS011;42155;53.096;23.226;2023-07-13T02:58:46;20.23;;;13.77;;
56242;SDS011;42155;53.096;23.226;2023-07-13T03:00:46;19.70;;;13.88;;
56242;SDS011;42155;53.096;23.226;2023-07-13T03:02:47;17.67;;;13.85;;
56242;SDS011;42155;53.096;23.226;2023-07-13T03:04:47;20.17;;;14.43;;
56242;SDS011;42155;53.096;23.226;2023-07-13T03:06:48;19.95;;;14.25;;
56242;SDS011;42155;53.096;23.226;2023-07-13T03:08:48;17.35;;;13.93;;
56242;SDS011;42155;53.096;23.226;2023-07-13T03:10:48;16.70;;;13.55;;
56242;SDS011;42155;53.096;23.226;2023-07-13T03:12:49;16.05;;;12.88;;
56242;SDS011;42155;53.096;23.226;2023-07-13T03:14:49;24.23;;;14.05;;
56242;SDS011;42155;53.096;23.226;2023-07-13T03:16:50;17.15;;;13.32;;
56242;SDS011;42155;53.096;23.226;2023-07-13T03:18:51;23.17;;;14.80;;
56242;SDS011;42155;53.096;23.226;2023-07-13T03:20:51;19.65;;;14.00;;
56242;SDS011;42155;53.096;23.226;2023-07-13T03:22:52;19.40;;;14.45;;
56242;SDS011;42155;53.096;23.226;2023-07-13T03:24:52;19.92;;;13.85;;
56242;SDS011;42155;53.096;23.226;2023-07-13T03:26:54;20.15;;;15.02;;
56242;SDS011;42155;53.096;23.226;2023-07-13T03:28:55;20.45;;;15.13;;
56242;SDS011;42155;53.096;23.226;2023-07-13T03:31:02;21.40;;;15.02;;
56242;SDS011;42155;53.096;23.226;2023-07-13T03:33:04;19.17;;;14.45;;
56242;SDS011;42155;53.096;23.226;2023-07-13T03:35:05;19.52;;;13.80;;
56242;SDS011;42155;53.096;23.226;2023-07-13T03:37:05;20.75;;;14.35;;
56242;SDS011;42155;53.096;23.226;2023-07-13T03:39:06;21.38;;;14.40;;
56242;SDS011;42155;53.096;23.226;2023-07-13T03:41:06;20.10;;;14.27;;
56242;SDS011;42155;53.096;23.226;2023-07-13T03:43:06;20.38;;;13.93;;
56242;SDS011;42155;53.096;23.226;2023-07-13T03:45:07;20.30;;;13.90;;
56242;SDS011;42155;53.096;23.226;2023-07-13T03:47:08;17.73;;;13.38;;
56242;SDS011;42155;53.096;23.226;2023-07-13T03:49:08;20.80;;;13.55;;
56242;SDS011;42155;53.096;23.226;2023-07-13T03:51:09;17.27;;;13.40;;
56242;SDS011;42155;53.096;23.226;2023-07-13T03:53:10;20.55;;;13.27;;
56242;SDS011;42155;53.096;23.226;2023-07-13T03:55:11;16.95;;;12.27;;
56242;SDS011;42155;53.096;23.226;2023-07-13T03:57:11;18.73;;;12.93;;
56242;SDS011;42155;53.096;23.226;2023-07-13T03:59:11;18.90;;;14.00;;
56242;SDS011;42155;53.096;23.226;2023-07-13T04:01:12;18.42;;;12.60;;
56242;SDS011;42155;53.096;23.226;2023-07-13T04:03:14;15.65;;;11.93;;
56242;SDS011;42155;53.096;23.226;2023-07-13T04:05:15;17.35;;;12.23;;
56242;SDS011;42155;53.096;23.226;2023-07-13T04:07:15;15.23;;;12.00;;
56242;SDS011;42155;53.096;23.226;2023-07-13T04:09:15;14.93;;;11.18;;
56242;SDS011;42155;53.096;23.226;2023-07-13T04:11:16;15.05;;;11.55;;
56242;SDS011;42155;53.096;23.226;2023-07-13T04:13:18;15.52;;;10.10;;
56242;SDS011;42155;53.096;23.226;2023-07-13T04:15:18;12.65;;;9.80;;
56242;SDS011;42155;53.096;23.226;2023-07-13T04:17:19;14.77;;;10.43;;
56242;SDS011;42155;53.096;23.226;2023-07-13T04:19:19;13.20;;;9.85;;
56242;SDS011;42155;53.096;23.226;2023-07-13T04:21:19;14.02;;;10.05;;
56242;SDS011;42155;53.096;23.226;2023-07-13T04:23:20;13.13;;;9.57;;
56242;SDS011;42155;53.096;23.226;2023-07-13T04:25:20;10.40;;;9.18;;
56242;SDS011;42155;53.096;23.226;2023-07-13T04:27:21;12.38;;;9.43;;
56242;SDS011;42155;53.096;23.226;2023-07-13T04:29:21;12.50;;;9.52;;
56242;SDS011;42155;53.096;23.226;2023-07-13T04:31:22;12.25;;;9.55;;
56242;SDS011;42155;53.096;23.226;2023-07-13T04:33:22;11.45;;;9.70;;
56242;SDS011;42155;53.096;23.226;2023-07-13T04:35:23;12.20;;;9.52;;
56242;SDS011;42155;53.096;23.226;2023-07-13T04:37:23;12.63;;;9.35;;
56242;SDS011;42155;53.096;23.226;2023-07-13T04:39:23;14.02;;;8.90;;
56242;SDS011;42155;53.096;23.226;2023-07-13T04:41:24;11.55;;;9.57;;
56242;SDS011;42155;53.096;23.226;2023-07-13T04:43:24;11.65;;;9.27;;
56242;SDS011;42155;53.096;23.226;2023-07-13T04:45:25;14.98;;;8.95;;
56242;SDS011;42155;53.096;23.226;2023-07-13T04:47:25;10.25;;;8.80;;
56242;SDS011;42155;53.096;23.226;2023-07-13T04:49:25;10.95;;;8.60;;
56242;SDS011;42155;53.096;23.226;2023-07-13T04:51:26;12.18;;;8.77;;
56242;SDS011;42155;53.096;23.226;2023-07-13T04:53:27;12.70;;;8.90;;
56242;SDS011;42155;53.096;23.226;2023-07-13T04:55:28;13.50;;;8.85;;
56242;SDS011;42155;53.096;23.226;2023-07-13T04:57:28;14.35;;;8.70;;
56242;SDS011;42155;53.096;23.226;2023-07-13T04:59:28;11.73;;;8.95;;
56242;SDS011;42155;53.096;23.226;2023-07-13T05:01:29;13.07;;;7.88;;
56242;SDS011;42155;53.096;23.226;2023-07-13T05:03:29;11.95;;;8.82;;
56242;SDS011;42155;53.096;23.226;2023-07-13T05:05:30;11.95;;;8.93;;
56242;SDS011;42155;53.096;23.226;2023-07-13T05:07:32;12.70;;;9.25;;
56242;SDS011;42155;53.096;23.226;2023-07-13T05:09:32;10.93;;;8.95;;
56242;SDS011;42155;53.096;23.226;2023-07-13T05:11:33;12.85;;;8.63;;
56242;SDS011;42155;53.096;23.226;2023-07-13T05:13:33;11.98;;;9.13;;
56242;SDS011;42155;53.096;23.226;2023-07-13T05:15:33;12.45;;;8.45;;
56242;SDS011;42155;53.096;23.226;2023-07-13T05:17:34;9.93;;;7.85;;
56242;SDS011;42155;53.096;23.226;2023-07-13T05:19:34;11.07;;;7.85;;
56242;SDS011;42155;53.096;23.226;2023-07-13T05:21:34;11.50;;;7.78;;
56242;SDS011;42155;53.096;23.226;2023-07-13T05:23:35;10.60;;;7.53;;
56242;SDS011;42155;53.096;23.226;2023-07-13T05:25:36;10.70;;;7.32;;
56242;SDS011;42155;53.096;23.226;2023-07-13T05:27:36;8.65;;;7.13;;
56242;SDS011;42155;53.096;23.226;2023-07-13T05:29:37;9.52;;;7.20;;
56242;SDS011;42155;53.096;23.226;2023-07-13T05:31:37;11.55;;;7.40;;
56242;SDS011;42155;53.096;23.226;2023-07-13T05:33:37;10.00;;;6.47;;
56242;SDS011;42155;53.096;23.226;2023-07-13T05:35:38;8.88;;;6.38;;
56242;SDS011;42155;53.096;23.226;2023-07-13T05:37:38;8.63;;;6.20;;
56242;SDS011;42155;53.096;23.226;2023-07-13T05:39:38;9.15;;;6.35;;
56242;SDS011;42155;53.096;23.226;2023-07-13T05:41:39;10.25;;;6.53;;
56242;SDS011;42155;53.096;23.226;2023-07-13T05:43:39;7.97;;;5.95;;
56242;SDS011;42155;53.096;23.226;2023-07-13T05:45:40;7.63;;;5.03;;
56242;SDS011;42155;53.096;23.226;2023-07-13T05:47:40;8.35;;;5.45;;
56242;SDS011;42155;53.096;23.226;2023-07-13T05:49:43;10.50;;;5.22;;
56242;SDS011;42155;53.096;23.226;2023-07-13T05:51:45;10.63;;;5.88;;
56242;SDS011;42155;53.096;23.226;2023-07-13T05:53:53;7.70;;;5.75;;
56242;SDS011;42155;53.096;23.226;2023-07-13T05:55:54;6.95;;;5.25;;
56242;SDS011;42155;53.096;23.226;2023-07-13T05:57:55;7.65;;;5.40;;
56242;SDS011;42155;53.096;23.226;2023-07-13T05:59:56;10.40;;;5.97;;
56242;SDS011;42155;53.096;23.226;2023-07-13T06:01:56;8.20;;;5.45;;
56242;SDS011;42155;53.096;23.226;2023-07-13T06:03:57;7.50;;;5.05;;
56242;SDS011;42155;53.096;23.226;2023-07-13T06:05:57;8.65;;;4.93;;
56242;SDS011;42155;53.096;23.226;2023-07-13T06:07:58;7.07;;;4.97;;
56242;SDS011;42155;53.096;23.226;2023-07-13T06:09:58;7.43;;;5.68;;
56242;SDS011;42155;53.096;23.226;2023-07-13T06:12:00;8.18;;;5.53;;
56242;SDS011;42155;53.096;23.226;2023-07-13T06:14:19;8.57;;;5.15;;
56242;SDS011;42155;53.096;23.226;2023-07-13T06:16:19;9.18;;;5.80;;
56242;SDS011;42155;53.096;23.226;2023-07-13T06:18:20;8.07;;;5.05;;
56242;SDS011;42155;53.096;23.226;2023-07-13T06:20:21;6.80;;;5.45;;
56242;SDS011;42155;53.096;23.226;2023-07-13T06:22:22;7.45;;;5.53;;
56242;SDS011;42155;53.096;23.226;2023-07-13T06:24:23;5.93;;;4.75;;
56242;SDS011;42155;53.096;23.226;2023-07-13T06:26:24;6.65;;;4.90;;
56242;SDS011;42155;53.096;23.226;2023-07-13T06:28:24;11.48;;;5.05;;
56242;SDS011;42155;53.096;23.226;2023-07-13T06:30:24;8.27;;;5.70;;
56242;SDS011;42155;53.096;23.226;2023-07-13T06:32:25;9.18;;;5.60;;
56242;SDS011;42155;53.096;23.226;2023-07-13T06:34:25;9.77;;;5.53;;
56242;SDS011;42155;53.096;23.226;2023-07-13T06:36:26;8.77;;;5.45;;
56242;SDS011;42155;53.096;23.226;2023-07-13T06:38:26;7.25;;;5.03;;
56242;SDS011;42155;53.096;23.226;2023-07-13T06:40:26;7.95;;;5.55;;
56242;SDS011;42155;53.096;23.226;2023-07-13T06:42:27;8.05;;;5.80;;
56242;SDS011;42155;53.096;23.226;2023-07-13T06:44:27;6.43;;;4.97;;
56242;SDS011;42155;53.096;23.226;2023-07-13T06:46:28;8.98;;;4.85;;
56242;SDS011;42155;53.096;23.226;2023-07-13T06:48:28;7.03;;;5.70;;
56242;SDS011;42155;53.096;23.226;2023-07-13T06:50:29;8.95;;;5.45;;
56242;SDS011;42155;53.096;23.226;2023-07-13T06:52:29;9.73;;;5.30;;
56242;SDS011;42155;53.096;23.226;2023-07-13T06:54:29;6.90;;;5.28;;
56242;SDS011;42155;53.096;23.226;2023-07-13T06:56:30;7.03;;;5.13;;
56242;SDS011;42155;53.096;23.226;2023-07-13T06:58:30;7.60;;;5.32;;
56242;SDS011;42155;53.096;23.226;2023-07-13T07:00:31;7.82;;;5.75;;
56242;SDS011;42155;53.096;23.226;2023-07-13T07:02:31;10.18;;;5.28;;
56242;SDS011;42155;53.096;23.226;2023-07-13T07:04:32;10.05;;;5.22;;
56242;SDS011;42155;53.096;23.226;2023-07-13T07:06:32;6.97;;;5.10;;
56242;SDS011;42155;53.096;23.226;2023-07-13T07:08:32;9.50;;;4.00;;
56242;SDS011;42155;53.096;23.226;2023-07-13T07:10:33;5.55;;;4.20;;
56242;SDS011;42155;53.096;23.226;2023-07-13T07:12:34;7.57;;;4.88;;
56242;SDS011;42155;53.096;23.226;2023-07-13T07:14:34;5.25;;;3.72;;
56242;SDS011;42155;53.096;23.226;2023-07-13T07:16:34;7.07;;;4.20;;
56242;SDS011;42155;53.096;23.226;2023-07-13T07:18:35;7.90;;;4.30;;
56242;SDS011;42155;53.096;23.226;2023-07-13T07:20:35;5.50;;;4.10;;
56242;SDS011;42155;53.096;23.226;2023-07-13T07:22:36;6.95;;;4.38;;
56242;SDS011;42155;53.096;23.226;2023-07-13T07:24:36;4.88;;;4.32;;
56242;SDS011;42155;53.096;23.226;2023-07-13T07:26:36;8.52;;;4.50;;
56242;SDS011;42155;53.096;23.226;2023-07-13T07:28:37;7.32;;;4.68;;
56242;SDS011;42155;53.096;23.226;2023-07-13T07:30:37;7.50;;;4.50;;
56242;SDS011;42155;53.096;23.226;2023-07-13T07:32:42;7.63;;;4.20;;
56242;SDS011;42155;53.096;23.226;2023-07-13T07:34:42;6.25;;;4.40;;
56242;SDS011;42155;53.096;23.226;2023-07-13T07:36:43;5.55;;;4.22;;
56242;SDS011;42155;53.096;23.226;2023-07-13T07:38:43;8.57;;;4.50;;
56242;SDS011;42155;53.096;23.226;2023-07-13T07:40:44;7.10;;;4.30;;
56242;SDS011;42155;53.096;23.226;2023-07-13T07:42:44;6.35;;;4.40;;
56242;SDS011;42155;53.096;23.226;2023-07-13T07:44:44;6.55;;;3.80;;
56242;SDS011;42155;53.096;23.226;2023-07-13T07:46:45;6.22;;;4.07;;
56242;SDS011;42155;53.096;23.226;2023-07-13T07:48:45;6.70;;;4.18;;
56242;SDS011;42155;53.096;23.226;2023-07-13T07:50:45;6.28;;;4.05;;
56242;SDS011;42155;53.096;23.226;2023-07-13T07:52:46;6.35;;;3.30;;
56242;SDS011;42155;53.096;23.226;2023-07-13T07:54:46;9.05;;;3.95;;
56242;SDS011;42155;53.096;23.226;2023-07-13T07:56:46;7.22;;;3.55;;
56242;SDS011;42155;53.096;23.226;2023-07-13T07:58:47;5.07;;;3.42;;
56242;SDS011;42155;53.096;23.226;2023-07-13T08:00:47;8.38;;;3.47;;
56242;SDS011;42155;53.096;23.226;2023-07-13T08:02:48;6.03;;;3.88;;
56242;SDS011;42155;53.096;23.226;2023-07-13T08:04:48;8.38;;;4.15;;
56242;SDS011;42155;53.096;23.226;2023-07-13T08:06:48;8.25;;;4.13;;
56242;SDS011;42155;53.096;23.226;2023-07-13T08:08:49;7.25;;;4.50;;
56242;SDS011;42155;53.096;23.226;2023-07-13T08:10:49;7.00;;;3.92;;
56242;SDS011;42155;53.096;23.226;2023-07-13T08:12:50;5.43;;;3.55;;
56242;SDS011;42155;53.096;23.226;2023-07-13T08:14:50;7.03;;;3.80;;
56242;SDS011;42155;53.096;23.226;2023-07-13T08:16:51;6.47;;;4.20;;
56242;SDS011;42155;53.096;23.226;2023-07-13T08:18:51;4.97;;;3.78;;
56242;SDS011;42155;53.096;23.226;2023-07-13T08:20:52;6.97;;;4.18;;
56242;SDS011;42155;53.096;23.226;2023-07-13T08:22:52;9.80;;;4.72;;
56242;SDS011;42155;53.096;23.226;2023-07-13T08:24:52;6.45;;;4.53;;
56242;SDS011;42155;53.096;23.226;2023-07-13T08:26:53;8.70;;;4.55;;
56242;SDS011;42155;53.096;23.226;2023-07-13T08:28:53;7.53;;;4.43;;
56242;SDS011;42155;53.096;23.226;2023-07-13T08:31:04;7.38;;;3.92;;
56242;SDS011;42155;53.096;23.226;2023-07-13T08:33:06;7.05;;;3.53;;
56242;SDS011;42155;53.096;23.226;2023-07-13T08:35:06;9.38;;;3.35;;
56242;SDS011;42155;53.096;23.226;2023-07-13T08:37:09;5.57;;;3.80;;
56242;SDS011;42155;53.096;23.226;2023-07-13T08:39:10;5.43;;;3.33;;
56242;SDS011;42155;53.096;23.226;2023-07-13T08:41:12;4.65;;;3.28;;
56242;SDS011;42155;53.096;23.226;2023-07-13T08:43:18;5.88;;;3.72;;
56242;SDS011;42155;53.096;23.226;2023-07-13T08:45:23;6.45;;;4.03;;
56242;SDS011;42155;53.096;23.226;2023-07-13T08:47:31;6.60;;;3.90;;
56242;SDS011;42155;53.096;23.226;2023-07-13T08:49:35;6.03;;;3.35;;
56242;SDS011;42155;53.096;23.226;2023-07-13T08:53:42;11.25;;;4.03;;
56242;SDS011;42155;53.096;23.226;2023-07-13T08:55:48;4.35;;;3.15;;
56242;SDS011;42155;53.096;23.226;2023-07-13T08:58:05;5.50;;;3.20;;
56242;SDS011;42155;53.096;23.226;2023-07-13T09:00:11;6.25;;;3.10;;
56242;SDS011;42155;53.096;23.226;2023-07-13T09:02:46;3.70;;;2.90;;
56242;SDS011;42155;53.096;23.226;2023-07-13T09:04:42;5.40;;;3.60;;
56242;SDS011;42155;53.096;23.226;2023-07-13T09:06:56;3.90;;;3.00;;
56242;SDS011;42155;53.096;23.226;2023-07-13T09:09:27;6.47;;;3.38;;
56242;SDS011;42155;53.096;23.226;2023-07-13T09:13:59;7.00;;;3.05;;
56242;SDS011;42155;53.096;23.226;2023-07-13T09:16:21;6.63;;;3.25;;
56242;SDS011;42155;53.096;23.226;2023-07-13T09:18:38;9.73;;;3.40;;
56242;SDS011;42155;53.096;23.226;2023-07-13T09:20:48;4.60;;;3.20;;
56242;SDS011;42155;53.096;23.226;2023-07-13T09:22:53;6.63;;;3.47;;
56242;SDS011;42155;53.096;23.226;2023-07-13T09:25:03;6.47;;;2.75;;
56242;SDS011;42155;53.096;23.226;2023-07-13T09:27:13;6.72;;;3.00;;
56242;SDS011;42155;53.096;23.226;2023-07-13T09:29:26;14.33;;;3.30;;
56242;SDS011;42155;53.096;23.226;2023-07-13T09:31:33;7.53;;;3.55;;
56242;SDS011;42155;53.096;23.226;2023-07-13T09:33:37;5.63;;;2.85;;
56242;SDS011;42155;53.096;23.226;2023-07-13T09:35:37;3.17;;;2.40;;
56242;SDS011;42155;53.096;23.226;2023-07-13T09:37:38;6.00;;;2.50;;
56242;SDS011;42155;53.096;23.226;2023-07-13T09:39:39;2.80;;;2.00;;
56242;SDS011;42155;53.096;23.226;2023-07-13T09:44:00;5.38;;;2.50;;
56242;SDS011;42155;53.096;23.226;2023-07-13T09:46:20;6.35;;;2.40;;
56242;SDS011;42155;53.096;23.226;2023-07-13T09:48:21;3.58;;;2.10;;
56242;SDS011;42155;53.096;23.226;2023-07-13T09:50:22;4.80;;;2.53;;
56242;SDS011;42155;53.096;23.226;2023-07-13T09:52:22;4.25;;;2.53;;
56242;SDS011;42155;53.096;23.226;2023-07-13T09:54:24;5.28;;;2.55;;
56242;SDS011;42155;53.096;23.226;2023-07-13T09:56:28;4.15;;;2.20;;
56242;SDS011;42155;53.096;23.226;2023-07-13T09:58:29;4.10;;;2.00;;
56242;SDS011;42155;53.096;23.226;2023-07-13T10:00:30;2.92;;;1.75;;
56242;SDS011;42155;53.096;23.226;2023-07-13T10:02:32;4.88;;;1.90;;
56242;SDS011;42155;53.096;23.226;2023-07-13T10:04:35;5.22;;;2.10;;
56242;SDS011;42155;53.096;23.226;2023-07-13T10:06:36;6.47;;;2.30;;
56242;SDS011;42155;53.096;23.226;2023-07-13T10:08:36;4.30;;;2.25;;
56242;SDS011;42155;53.096;23.226;2023-07-13T10:10:37;2.97;;;1.90;;
56242;SDS011;42155;53.096;23.226;2023-07-13T10:12:37;5.95;;;2.53;;
56242;SDS011;42155;53.096;23.226;2023-07-13T10:14:38;3.38;;;1.75;;
56242;SDS011;42155;53.096;23.226;2023-07-13T10:16:40;5.78;;;1.88;;
56242;SDS011;42155;53.096;23.226;2023-07-13T10:18:46;2.67;;;1.85;;
56242;SDS011;42155;53.096;23.226;2023-07-13T10:20:54;3.60;;;1.92;;
56242;SDS011;42155;53.096;23.226;2023-07-13T10:23:08;4.75;;;1.83;;
56242;SDS011;42155;53.096;23.226;2023-07-13T10:25:19;4.38;;;1.88;;
56242;SDS011;42155;53.096;23.226;2023-07-13T10:27:46;3.80;;;1.95;;
56242;SDS011;42155;53.096;23.226;2023-07-13T10:29:51;4.30;;;1.73;;
56242;SDS011;42155;53.096;23.226;2023-07-13T10:31:56;2.90;;;1.45;;
56242;SDS011;42155;53.096;23.226;2023-07-13T10:33:56;3.67;;;2.00;;
56242;SDS011;42155;53.096;23.226;2023-07-13T10:36:17;5.35;;;1.88;;
56242;SDS011;42155;53.096;23.226;2023-07-13T10:38:27;2.65;;;1.60;;
56242;SDS011;42155;53.096;23.226;2023-07-13T10:41:11;3.53;;;1.80;;
56242;SDS011;42155;53.096;23.226;2023-07-13T10:42:51;3.08;;;1.70;;
56242;SDS011;42155;53.096;23.226;2023-07-13T10:44:56;2.10;;;1.48;;
56242;SDS011;42155;53.096;23.226;2023-07-13T10:47:04;2.80;;;1.50;;
56242;SDS011;42155;53.096;23.226;2023-07-13T10:49:10;5.35;;;1.90;;
56242;SDS011;42155;53.096;23.226;2023-07-13T10:51:13;3.17;;;1.42;;
56242;SDS011;42155;53.096;23.226;2023-07-13T10:57:42;3.20;;;1.60;;
56242;SDS011;42155;53.096;23.226;2023-07-13T10:59:43;2.63;;;1.60;;
56242;SDS011;42155;53.096;23.226;2023-07-13T11:01:55;2.40;;;1.48;;
56242;SDS011;42155;53.096;23.226;2023-07-13T11:04:10;2.58;;;1.60;;
56242;SDS011;42155;53.096;23.226;2023-07-13T11:08:56;6.10;;;1.75;;
56242;SDS011;42155;53.096;23.226;2023-07-13T11:10:53;3.17;;;1.70;;
56242;SDS011;42155;53.096;23.226;2023-07-13T11:12:55;2.47;;;1.58;;
56242;SDS011;42155;53.096;23.226;2023-07-13T11:16:55;2.58;;;1.60;;
56242;SDS011;42155;53.096;23.226;2023-07-13T11:21:15;3.75;;;1.80;;
56242;SDS011;42155;53.096;23.226;2023-07-13T11:23:29;2.40;;;1.52;;
56242;SDS011;42155;53.096;23.226;2023-07-13T11:25:32;3.78;;;1.77;;
56242;SDS011;42155;53.096;23.226;2023-07-13T11:27:35;2.00;;;1.50;;
56242;SDS011;42155;53.096;23.226;2023-07-13T11:29:38;4.60;;;2.25;;
56242;SDS011;42155;53.096;23.226;2023-07-13T11:31:39;4.53;;;1.80;;
56242;SDS011;42155;53.096;23.226;2023-07-13T11:37:53;3.00;;;1.90;;
56242;SDS011;42155;53.096;23.226;2023-07-13T11:39:53;2.13;;;1.40;;
56242;SDS011;42155;53.096;23.226;2023-07-13T11:41:57;3.60;;;1.45;;
56242;SDS011;42155;53.096;23.226;2023-07-13T11:44:02;3.65;;;1.95;;
56242;SDS011;42155;53.096;23.226;2023-07-13T11:46:20;4.15;;;1.80;;
56242;SDS011;42155;53.096;23.226;2023-07-13T11:48:29;4.40;;;2.00;;
56242;SDS011;42155;53.096;23.226;2023-07-13T11:50:29;2.78;;;1.77;;
56242;SDS011;42155;53.096;23.226;2023-07-13T11:52:32;2.83;;;1.90;;
56242;SDS011;42155;53.096;23.226;2023-07-13T11:54:43;4.40;;;2.00;;
56242;SDS011;42155;53.096;23.226;2023-07-13T11:56:51;3.55;;;1.80;;
56242;SDS011;42155;53.096;23.226;2023-07-13T11:58:54;3.90;;;1.63;;
56242;SDS011;42155;53.096;23.226;2023-07-13T12:00:58;4.57;;;1.70;;
56242;SDS011;42155;53.096;23.226;2023-07-13T12:03:00;3.65;;;1.40;;
56242;SDS011;42155;53.096;23.226;2023-07-13T12:05:03;4.55;;;1.80;;
56242;SDS011;42155;53.096;23.226;2023-07-13T12:07:07;2.60;;;1.70;;
56242;SDS011;42155;53.096;23.226;2023-07-13T12:09:14;3.33;;;1.60;;
56242;SDS011;42155;53.096;23.226;2023-07-13T12:11:16;3.40;;;1.77;;
56242;SDS011;42155;53.096;23.226;2023-07-13T12:13:17;6.22;;;1.75;;
56242;SDS011;42155;53.096;23.226;2023-07-13T12:15:18;3.65;;;1.60;;
56242;SDS011;42155;53.096;23.226;2023-07-13T12:17:20;2.75;;;1.60;;
56242;SDS011;42155;53.096;23.226;2023-07-13T12:19:23;2.50;;;1.50;;